sensor_id;sensor_type;location;lat;lon;timestamp;pressure;altitude;pressure_sealevel;temperature;humidity
9257;BME280;4665;51.368;6.782;2023-06-05T00:00:21;101760.41;;;15.46;100.00
9257;BME280;4665;51.368;6.782;2023-06-05T00:02:47;101762.94;;;15.48;100.00
9257;BME280;4665;51.368;6.782;2023-06-05T00:05:13;101766.97;;;15.44;100.00
9257;BME280;4665;51.368;6.782;2023-06-05T00:07:38;101779.91;;;15.48;100.00
9257;BME280;4665;51.368;6.782;2023-06-05T00:10:07;101775.50;;;15.47;100.00
9257;BME280;4665;51.368;6.782;2023-06-05T00:12:34;101780.53;;;15.42;100.00
9257;BME280;4665;51.368;6.782;2023-06-05T00:14:59;101771.81;;;15.40;100.00
9257;BME280;4665;51.368;6.782;2023-06-05T00:17:25;101782.38;;;15.42;100.00
9257;BME280;4665;51.368;6.782;2023-06-05T00:19:50;101772.47;;;15.42;100.00
9257;BME280;4665;51.368;6.782;2023-06-05T00:22:15;101788.06;;;15.39;100.00
9257;BME280;4665;51.368;6.782;2023-06-05T00:24:41;101778.97;;;15.31;100.00
9257;BME280;4665;51.368;6.782;2023-06-05T00:27:06;101781.66;;;15.31;100.00
9257;BME280;4665;51.368;6.782;2023-06-05T00:29:32;101768.06;;;15.25;100.00
9257;BME280;4665;51.368;6.782;2023-06-05T00:31:57;101768.06;;;15.25;100.00
9257;BME280;4665;51.368;6.782;2023-06-05T00:34:22;101764.84;;;15.21;100.00
9257;BME280;4665;51.368;6.782;2023-06-05T00:36:48;101774.56;;;15.22;100.00
9257;BME280;4665;51.368;6.782;2023-06-05T00:39:17;101750.69;;;15.03;100.00
9257;BME280;4665;51.368;6.782;2023-06-05T00:41:44;101752.53;;;15.02;100.00
9257;BME280;4665;51.368;6.782;2023-06-05T00:44:10;101772.00;;;15.12;100.00
9257;BME280;4665;51.368;6.782;2023-06-05T00:46:37;101759.06;;;15.00;100.00
9257;BME280;4665;51.368;6.782;2023-06-05T00:49:02;101770.97;;;15.05;100.00
9257;BME280;4665;51.368;6.782;2023-06-05T00:51:28;101750.25;;;14.89;100.00
9257;BME280;4665;51.368;6.782;2023-06-05T00:53:54;101759.19;;;14.90;100.00
9257;BME280;4665;51.368;6.782;2023-06-05T00:56:20;101752.91;;;14.81;100.00
9257;BME280;4665;51.368;6.782;2023-06-05T00:58:47;101772.19;;;14.85;100.00
9257;BME280;4665;51.368;6.782;2023-06-05T01:01:12;101779.78;;;14.89;100.00
9257;BME280;4665;51.368;6.782;2023-06-05T01:03:40;101775.06;;;14.83;100.00
9257;BME280;4665;51.368;6.782;2023-06-05T01:06:06;101755.53;;;14.73;100.00
9257;BME280;4665;51.368;6.782;2023-06-05T01:08:32;101771.81;;;14.71;100.00
9257;BME280;4665;51.368;6.782;2023-06-05T01:11:08;101770.25;;;14.69;100.00
9257;BME280;4665;51.368;6.782;2023-06-05T01:13:35;101767.91;;;14.66;100.00
9257;BME280;4665;51.368;6.782;2023-06-05T01:16:03;101773.13;;;14.67;100.00
9257;BME280;4665;51.368;6.782;2023-06-05T01:18:30;101768.53;;;14.60;100.00
9257;BME280;4665;51.368;6.782;2023-06-05T01:21:00;101772.91;;;14.61;100.00
9257;BME280;4665;51.368;6.782;2023-06-05T01:23:26;101771.03;;;14.61;100.00
9257;BME280;4665;51.368;6.782;2023-06-05T01:25:59;101757.81;;;14.60;100.00
9257;BME280;4665;51.368;6.782;2023-06-05T01:28:29;101766.00;;;14.58;100.00
9257;BME280;4665;51.368;6.782;2023-06-05T01:31:06;101766.00;;;14.58;100.00
9257;BME280;4665;51.368;6.782;2023-06-05T01:33:45;101759.50;;;14.43;100.00
9257;BME280;4665;51.368;6.782;2023-06-05T01:36:15;101758.09;;;14.39;100.00
9257;BME280;4665;51.368;6.782;2023-06-05T01:38:42;101773.59;;;14.45;100.00
9257;BME280;4665;51.368;6.782;2023-06-05T01:41:10;101771.50;;;14.39;100.00
9257;BME280;4665;51.368;6.782;2023-06-05T01:43:36;101769.53;;;14.41;100.00
9257;BME280;4665;51.368;6.782;2023-06-05T01:46:02;101773.00;;;14.33;100.00
9257;BME280;4665;51.368;6.782;2023-06-05T01:48:28;101770.78;;;14.28;100.00
9257;BME280;4665;51.368;6.782;2023-06-05T01:50:56;101761.34;;;14.24;100.00
9257;BME280;4665;51.368;6.782;2023-06-05T01:53:21;101765.41;;;14.28;100.00
9257;BME280;4665;51.368;6.782;2023-06-05T01:55:46;101755.09;;;14.16;100.00
9257;BME280;4665;51.368;6.782;2023-06-05T01:58:13;101760.47;;;14.16;100.00
9257;BME280;4665;51.368;6.782;2023-06-05T02:00:39;101766.09;;;14.13;100.00
9257;BME280;4665;51.368;6.782;2023-06-05T02:03:04;101764.97;;;14.15;100.00
9257;BME280;4665;51.368;6.782;2023-06-05T02:05:30;101763.06;;;14.07;100.00
9257;BME280;4665;51.368;6.782;2023-06-05T02:07:57;101757.16;;;14.04;100.00
9257;BME280;4665;51.368;6.782;2023-06-05T02:10:24;101752.41;;;13.98;100.00
9257;BME280;4665;51.368;6.782;2023-06-05T02:12:49;101759.78;;;13.96;100.00
9257;BME280;4665;51.368;6.782;2023-06-05T02:15:15;101760.38;;;13.89;100.00
9257;BME280;4665;51.368;6.782;2023-06-05T02:17:42;101754.50;;;13.86;100.00
9257;BME280;4665;51.368;6.782;2023-06-05T02:20:13;101756.47;;;13.84;100.00
9257;BME280;4665;51.368;6.782;2023-06-05T02:22:39;101744.06;;;13.65;100.00
9257;BME280;4665;51.368;6.782;2023-06-05T02:25:06;101739.69;;;13.64;100.00
9257;BME280;4665;51.368;6.782;2023-06-05T02:27:31;101768.56;;;13.70;100.00
9257;BME280;4665;51.368;6.782;2023-06-05T02:29:56;101758.81;;;13.69;100.00
9257;BME280;4665;51.368;6.782;2023-06-05T02:32:22;101742.00;;;13.59;100.00
9257;BME280;4665;51.368;6.782;2023-06-05T02:34:51;101757.75;;;13.62;100.00
9257;BME280;4665;51.368;6.782;2023-06-05T02:37:16;101744.28;;;13.54;100.00
9257;BME280;4665;51.368;6.782;2023-06-05T02:39:42;101759.66;;;13.52;100.00
9257;BME280;4665;51.368;6.782;2023-06-05T02:42:07;101754.28;;;13.52;100.00
9257;BME280;4665;51.368;6.782;2023-06-05T02:44:33;101744.34;;;13.44;100.00
9257;BME280;4665;51.368;6.782;2023-06-05T02:46:59;101738.75;;;13.37;100.00
9257;BME280;4665;51.368;6.782;2023-06-05T02:49:24;101740.47;;;13.29;100.00
9257;BME280;4665;51.368;6.782;2023-06-05T02:51:50;101748.06;;;13.33;100.00
9257;BME280;4665;51.368;6.782;2023-06-05T02:54:15;101736.38;;;13.24;100.00
9257;BME280;4665;51.368;6.782;2023-06-05T02:56:40;101743.56;;;13.24;100.00
9257;BME280;4665;51.368;6.782;2023-06-05T02:59:09;101736.53;;;13.23;100.00
9257;BME280;4665;51.368;6.782;2023-06-05T03:01:34;101738.78;;;13.18;100.00
9257;BME280;4665;51.368;6.782;2023-06-05T03:04:01;101729.09;;;13.17;100.00
9257;BME280;4665;51.368;6.782;2023-06-05T03:06:27;101736.44;;;13.15;100.00
9257;BME280;4665;51.368;6.782;2023-06-05T03:08:53;101738.28;;;13.14;100.00
9257;BME280;4665;51.368;6.782;2023-06-05T03:11:21;101739.41;;;13.12;100.00
9257;BME280;4665;51.368;6.782;2023-06-05T03:13:46;101736.88;;;13.10;100.00
9257;BME280;4665;51.368;6.782;2023-06-05T03:16:11;101727.63;;;13.04;100.00
9257;BME280;4665;51.368;6.782;2023-06-05T03:18:38;101724.00;;;12.96;100.00
9257;BME280;4665;51.368;6.782;2023-06-05T03:21:03;101739.59;;;13.00;100.00
9257;BME280;4665;51.368;6.782;2023-06-05T03:23:29;101732.84;;;12.96;100.00
9257;BME280;4665;51.368;6.782;2023-06-05T03:25:55;101737.06;;;12.99;100.00
9257;BME280;4665;51.368;6.782;2023-06-05T03:28:21;101718.97;;;12.83;100.00
9257;BME280;4665;51.368;6.782;2023-06-05T03:30:48;101729.06;;;12.89;100.00
9257;BME280;4665;51.368;6.782;2023-06-05T03:33:14;101737.25;;;12.88;100.00
9257;BME280;4665;51.368;6.782;2023-06-05T03:35:41;101729.91;;;12.90;100.00
9257;BME280;4665;51.368;6.782;2023-06-05T03:38:08;101731.94;;;12.78;100.00
9257;BME280;4665;51.368;6.782;2023-06-05T03:40:34;101740.50;;;12.81;100.00
9257;BME280;4665;51.368;6.782;2023-06-05T03:42:59;101712.69;;;12.64;100.00
9257;BME280;4665;51.368;6.782;2023-06-05T03:45:24;101705.28;;;12.58;100.00
9257;BME280;4665;51.368;6.782;2023-06-05T03:47:52;101711.75;;;12.56;100.00
9257;BME280;4665;51.368;6.782;2023-06-05T03:50:19;101711.88;;;12.54;100.00
9257;BME280;4665;51.368;6.782;2023-06-05T03:52:45;101722.53;;;12.64;100.00
9257;BME280;4665;51.368;6.782;2023-06-05T03:55:18;101719.59;;;12.57;100.00
9257;BME280;4665;51.368;6.782;2023-06-05T03:57:43;101735.63;;;12.67;100.00
9257;BME280;4665;51.368;6.782;2023-06-05T04:00:09;101730.03;;;12.60;100.00
9257;BME280;4665;51.368;6.782;2023-06-05T04:02:35;101748.03;;;12.58;100.00
9257;BME280;4665;51.368;6.782;2023-06-05T04:05:01;101733.56;;;12.51;100.00
9257;BME280;4665;51.368;6.782;2023-06-05T04:07:29;101735.09;;;12.54;100.00
9257;BME280;4665;51.368;6.782;2023-06-05T04:09:54;101719.09;;;12.44;100.00
9257;BME280;4665;51.368;6.782;2023-06-05T04:12:20;101743.25;;;12.52;100.00
9257;BME280;4665;51.368;6.782;2023-06-05T04:14:46;101729.34;;;12.39;100.00
9257;BME280;4665;51.368;6.782;2023-06-05T04:17:11;101734.25;;;12.43;100.00
9257;BME280;4665;51.368;6.782;2023-06-05T04:19:38;101740.19;;;12.47;100.00
9257;BME280;4665;51.368;6.782;2023-06-05T04:22:04;101745.81;;;12.44;100.00
9257;BME280;4665;51.368;6.782;2023-06-05T04:24:29;101758.19;;;12.45;100.00
9257;BME280;4665;51.368;6.782;2023-06-05T04:26:55;101744.69;;;12.47;100.00
9257;BME280;4665;51.368;6.782;2023-06-05T04:29:20;101743.81;;;12.46;100.00
9257;BME280;4665;51.368;6.782;2023-06-05T04:31:46;101744.41;;;12.40;100.00
9257;BME280;4665;51.368;6.782;2023-06-05T04:34:15;101739.19;;;12.38;100.00
9257;BME280;4665;51.368;6.782;2023-06-05T04:36:43;101742.44;;;12.42;100.00
9257;BME280;4665;51.368;6.782;2023-06-05T04:39:09;101730.06;;;12.41;100.00
9257;BME280;4665;51.368;6.782;2023-06-05T04:41:43;101744.69;;;12.47;100.00
9257;BME280;4665;51.368;6.782;2023-06-05T04:44:13;101750.44;;;12.52;100.00
9257;BME280;4665;51.368;6.782;2023-06-05T04:46:41;101746.94;;;12.51;100.00
9257;BME280;4665;51.368;6.782;2023-06-05T04:49:10;101746.50;;;12.46;100.00
9257;BME280;4665;51.368;6.782;2023-06-05T04:51:36;101749.59;;;12.51;100.00
9257;BME280;4665;51.368;6.782;2023-06-05T04:54:02;101752.28;;;12.51;100.00
9257;BME280;4665;51.368;6.782;2023-06-05T04:56:27;101749.59;;;12.51;100.00
9257;BME280;4665;51.368;6.782;2023-06-05T04:58:53;101755.66;;;12.53;100.00
9257;BME280;4665;51.368;6.782;2023-06-05T05:01:18;101744.38;;;12.50;100.00
9257;BME280;4665;51.368;6.782;2023-06-05T05:03:45;101742.97;;;12.55;100.00
9257;BME280;4665;51.368;6.782;2023-06-05T05:06:14;101751.69;;;12.57;100.00
9257;BME280;4665;51.368;6.782;2023-06-05T05:08:40;101739.63;;;12.53;100.00
9257;BME280;4665;51.368;6.782;2023-06-05T05:11:05;101746.59;;;12.64;100.00
9257;BME280;4665;51.368;6.782;2023-06-05T05:13:30;101752.50;;;12.68;100.00
9257;BME280;4665;51.368;6.782;2023-06-05T05:15:56;101735.38;;;12.60;100.00
9257;BME280;4665;51.368;6.782;2023-06-05T05:18:21;101746.59;;;12.64;100.00
9257;BME280;4665;51.368;6.782;2023-06-05T05:20:47;101735.91;;;12.64;100.00
9257;BME280;4665;51.368;6.782;2023-06-05T05:23:13;101732.09;;;12.67;100.00
9257;BME280;4665;51.368;6.782;2023-06-05T05:25:39;101739.56;;;12.73;100.00
9257;BME280;4665;51.368;6.782;2023-06-05T05:28:05;101755.56;;;12.82;100.00
9257;BME280;4665;51.368;6.782;2023-06-05T05:30:31;101745.25;;;12.88;100.00
9257;BME280;4665;51.368;6.782;2023-06-05T05:32:58;101753.00;;;12.91;100.00
9257;BME280;4665;51.368;6.782;2023-06-05T05:35:23;101740.16;;;12.94;100.00
9257;BME280;4665;51.368;6.782;2023-06-05T05:37:48;101745.38;;;12.96;100.00
9257;BME280;4665;51.368;6.782;2023-06-05T05:40:14;101758.31;;;13.00;100.00
9257;BME280;4665;51.368;6.782;2023-06-05T05:42:40;101756.03;;;13.05;100.00
9257;BME280;4665;51.368;6.782;2023-06-05T05:45:06;101760.81;;;13.12;100.00
9257;BME280;4665;51.368;6.782;2023-06-05T05:47:32;101754.31;;;13.14;100.00
9257;BME280;4665;51.368;6.782;2023-06-05T05:49:57;101765.56;;;13.18;100.00
9257;BME280;4665;51.368;6.782;2023-06-05T05:52:23;101763.88;;;13.17;100.00
9257;BME280;4665;51.368;6.782;2023-06-05T05:54:48;101745.00;;;13.18;100.00
9257;BME280;4665;51.368;6.782;2023-06-05T05:57:13;101749.19;;;13.31;100.00
9257;BME280;4665;51.368;6.782;2023-06-05T05:59:40;101764.06;;;13.43;100.00
9257;BME280;4665;51.368;6.782;2023-06-05T06:02:07;101749.97;;;13.41;100.00
9257;BME280;4665;51.368;6.782;2023-06-05T06:04:35;101755.13;;;13.52;100.00
9257;BME280;4665;51.368;6.782;2023-06-05T06:07:00;101766.78;;;13.61;100.00
9257;BME280;4665;51.368;6.782;2023-06-05T06:09:26;101769.38;;;13.71;100.00
9257;BME280;4665;51.368;6.782;2023-06-05T06:11:52;101763.56;;;13.75;100.00
9257;BME280;4665;51.368;6.782;2023-06-05T06:14:21;101764.38;;;13.85;100.00
9257;BME280;4665;51.368;6.782;2023-06-05T06:16:47;101758.38;;;13.92;100.00
9257;BME280;4665;51.368;6.782;2023-06-05T06:19:13;101760.06;;;14.10;100.00
9257;BME280;4665;51.368;6.782;2023-06-05T06:21:40;101758.16;;;14.21;100.00
9257;BME280;4665;51.368;6.782;2023-06-05T06:24:05;101750.34;;;14.27;100.00
9257;BME280;4665;51.368;6.782;2023-06-05T06:26:31;101759.81;;;14.40;100.00
9257;BME280;4665;51.368;6.782;2023-06-05T06:28:56;101749.44;;;14.45;100.00
9257;BME280;4665;51.368;6.782;2023-06-05T06:31:24;101755.59;;;14.55;100.00
9257;BME280;4665;51.368;6.782;2023-06-05T06:33:49;101757.97;;;14.58;100.00
9257;BME280;4665;51.368;6.782;2023-06-05T06:36:16;101755.28;;;14.58;100.00
9257;BME280;4665;51.368;6.782;2023-06-05T06:38:43;101747.25;;;14.58;100.00
9257;BME280;4665;51.368;6.782;2023-06-05T06:41:08;101758.53;;;14.70;100.00
9257;BME280;4665;51.368;6.782;2023-06-05T06:43:33;101756.34;;;14.65;100.00
9257;BME280;4665;51.368;6.782;2023-06-05T06:45:59;101769.50;;;14.77;100.00
9257;BME280;4665;51.368;6.782;2023-06-05T06:48:25;101745.50;;;14.75;100.00
9257;BME280;4665;51.368;6.782;2023-06-05T06:50:50;101751.75;;;14.84;100.00
9257;BME280;4665;51.368;6.782;2023-06-05T06:53:17;101751.84;;;15.00;100.00
9257;BME280;4665;51.368;6.782;2023-06-05T06:55:43;101761.47;;;15.19;100.00
9257;BME280;4665;51.368;6.782;2023-06-05T06:58:09;101759.34;;;15.23;100.00
9257;BME280;4665;51.368;6.782;2023-06-05T07:00:35;101757.16;;;15.26;100.00
9257;BME280;4665;51.368;6.782;2023-06-05T07:03:01;101759.63;;;15.20;100.00
9257;BME280;4665;51.368;6.782;2023-06-05T07:05:26;101763.47;;;15.17;100.00
9257;BME280;4665;51.368;6.782;2023-06-05T07:07:51;101754.25;;;15.20;100.00
9257;BME280;4665;51.368;6.782;2023-06-05T07:10:17;101779.16;;;15.38;100.00
9257;BME280;4665;51.368;6.782;2023-06-05T07:12:42;101764.91;;;15.38;100.00
9257;BME280;4665;51.368;6.782;2023-06-05T07:15:08;101772.19;;;15.62;100.00
9257;BME280;4665;51.368;6.782;2023-06-05T07:17:33;101767.00;;;15.68;100.00
9257;BME280;4665;51.368;6.782;2023-06-05T07:19:59;101748.56;;;15.65;100.00
9257;BME280;4665;51.368;6.782;2023-06-05T07:22:25;101773.97;;;15.87;100.00
9257;BME280;4665;51.368;6.782;2023-06-05T07:24:52;101763.56;;;15.84;100.00
9257;BME280;4665;51.368;6.782;2023-06-05T07:27:18;101762.72;;;15.92;100.00
9257;BME280;4665;51.368;6.782;2023-06-05T07:29:45;101761.22;;;15.89;100.00
9257;BME280;4665;51.368;6.782;2023-06-05T07:32:10;101754.16;;;15.96;100.00
9257;BME280;4665;51.368;6.782;2023-06-05T07:34:39;101746.13;;;16.05;100.00
9257;BME280;4665;51.368;6.782;2023-06-05T07:37:04;101754.53;;;16.18;100.00
9257;BME280;4665;51.368;6.782;2023-06-05T07:39:32;101743.09;;;16.16;100.00
9257;BME280;4665;51.368;6.782;2023-06-05T07:41:58;101754.50;;;16.26;100.00
9257;BME280;4665;51.368;6.782;2023-06-05T07:44:23;101742.41;;;16.30;100.00
9257;BME280;4665;51.368;6.782;2023-06-05T07:46:55;101763.59;;;16.41;100.00
9257;BME280;4665;51.368;6.782;2023-06-05T07:49:23;101744.41;;;16.45;100.00
9257;BME280;4665;51.368;6.782;2023-06-05T07:51:49;101755.50;;;16.58;100.00
9257;BME280;4665;51.368;6.782;2023-06-05T07:54:16;101739.72;;;16.55;100.00
9257;BME280;4665;51.368;6.782;2023-06-05T07:56:41;101755.31;;;16.68;100.00
9257;BME280;4665;51.368;6.782;2023-06-05T07:59:10;101749.06;;;16.75;100.00
9257;BME280;4665;51.368;6.782;2023-06-05T08:01:39;101760.50;;;16.94;100.00
9257;BME280;4665;51.368;6.782;2023-06-05T08:04:08;101767.50;;;17.11;100.00
9257;BME280;4665;51.368;6.782;2023-06-05T08:06:36;101749.19;;;17.07;100.00
9257;BME280;4665;51.368;6.782;2023-06-05T08:09:04;101751.00;;;17.14;100.00
9257;BME280;4665;51.368;6.782;2023-06-05T08:11:29;101744.25;;;17.18;100.00
9257;BME280;4665;51.368;6.782;2023-06-05T08:13:55;101756.50;;;17.29;100.00
9257;BME280;4665;51.368;6.782;2023-06-05T08:16:21;101765.72;;;17.43;100.00
9257;BME280;4665;51.368;6.782;2023-06-05T08:18:46;101769.53;;;17.49;100.00
9257;BME280;4665;51.368;6.782;2023-06-05T08:21:12;101743.28;;;17.42;100.00
9257;BME280;4665;51.368;6.782;2023-06-05T08:23:38;101741.28;;;17.44;100.00
9257;BME280;4665;51.368;6.782;2023-06-05T08:26:03;101741.72;;;17.56;100.00
9257;BME280;4665;51.368;6.782;2023-06-05T08:28:37;101757.59;;;17.74;100.00
9257;BME280;4665;51.368;6.782;2023-06-05T08:31:03;101762.16;;;17.74;100.00
9257;BME280;4665;51.368;6.782;2023-06-05T08:33:32;101739.66;;;17.66;100.00
9257;BME280;4665;51.368;6.782;2023-06-05T08:35:57;101748.31;;;17.77;100.00
9257;BME280;4665;51.368;6.782;2023-06-05T08:38:22;101747.78;;;17.90;100.00
9257;BME280;4665;51.368;6.782;2023-06-05T08:40:52;101734.75;;;17.93;100.00
9257;BME280;4665;51.368;6.782;2023-06-05T08:43:22;101755.53;;;18.07;100.00
9257;BME280;4665;51.368;6.782;2023-06-05T08:45:51;101750.09;;;18.16;100.00
9257;BME280;4665;51.368;6.782;2023-06-05T08:48:17;101732.88;;;18.17;100.00
9257;BME280;4665;51.368;6.782;2023-06-05T08:50:46;101738.22;;;18.25;100.00
9257;BME280;4665;51.368;6.782;2023-06-05T08:53:13;101733.09;;;18.30;100.00
9257;BME280;4665;51.368;6.782;2023-06-05T08:55:43;101740.31;;;18.53;100.00
9257;BME280;4665;51.368;6.782;2023-06-05T08:58:09;101728.03;;;18.50;100.00
9257;BME280;4665;51.368;6.782;2023-06-05T09:00:36;101720.88;;;18.57;100.00
9257;BME280;4665;51.368;6.782;2023-06-05T09:03:01;101729.47;;;18.76;100.00
9257;BME280;4665;51.368;6.782;2023-06-05T09:05:27;101738.31;;;18.84;100.00
9257;BME280;4665;51.368;6.782;2023-06-05T09:07:55;101733.41;;;18.88;100.00
9257;BME280;4665;51.368;6.782;2023-06-05T09:12:56;101714.47;;;19.03;100.00
9257;BME280;4665;51.368;6.782;2023-06-05T09:15:30;101717.25;;;19.09;100.00
9257;BME280;4665;51.368;6.782;2023-06-05T09:18:12;101714.75;;;19.23;100.00
9257;BME280;4665;51.368;6.782;2023-06-05T09:20:44;101724.66;;;19.37;99.86
9257;BME280;4665;51.368;6.782;2023-06-05T09:23:26;101721.78;;;19.39;96.35
9257;BME280;4665;51.368;6.782;2023-06-05T09:25:54;101704.94;;;19.37;100.00
9257;BME280;4665;51.368;6.782;2023-06-05T09:28:20;101703.78;;;19.46;98.96
9257;BME280;4665;51.368;6.782;2023-06-05T09:31:18;101719.28;;;19.59;90.87
9257;BME280;4665;51.368;6.782;2023-06-05T09:33:54;101716.66;;;19.65;99.60
9257;BME280;4665;51.368;6.782;2023-06-05T09:36:20;101721.34;;;19.71;91.92
9257;BME280;4665;51.368;6.782;2023-06-05T09:38:46;101724.19;;;19.85;83.41
9257;BME280;4665;51.368;6.782;2023-06-05T09:41:13;101704.38;;;19.78;91.32
9257;BME280;4665;51.368;6.782;2023-06-05T09:43:45;101710.91;;;19.90;95.91
9257;BME280;4665;51.368;6.782;2023-06-05T09:46:15;101709.28;;;19.95;94.06
9257;BME280;4665;51.368;6.782;2023-06-05T09:48:42;101705.50;;;19.90;85.82
9257;BME280;4665;51.368;6.782;2023-06-05T09:51:13;101701.88;;;20.04;96.52
9257;BME280;4665;51.368;6.782;2023-06-05T09:53:44;101705.69;;;20.10;85.38
9257;BME280;4665;51.368;6.782;2023-06-05T09:56:14;101694.22;;;20.08;82.18
9257;BME280;4665;51.368;6.782;2023-06-05T09:58:50;101712.66;;;20.26;80.52
9257;BME280;4665;51.368;6.782;2023-06-05T10:01:24;101705.25;;;20.34;87.49
9257;BME280;4665;51.368;6.782;2023-06-05T10:03:58;101694.72;;;20.46;81.33
9257;BME280;4665;51.368;6.782;2023-06-05T10:06:28;101700.16;;;20.53;82.97
9257;BME280;4665;51.368;6.782;2023-06-05T10:08:55;101688.91;;;20.49;81.77
9257;BME280;4665;51.368;6.782;2023-06-05T10:11:23;101687.75;;;20.58;76.95
9257;BME280;4665;51.368;6.782;2023-06-05T10:13:49;101689.25;;;20.68;73.20
9257;BME280;4665;51.368;6.782;2023-06-05T10:16:19;101690.16;;;20.75;74.23
9257;BME280;4665;51.368;6.782;2023-06-05T10:18:49;101697.91;;;20.85;67.91
9257;BME280;4665;51.368;6.782;2023-06-05T10:21:18;101694.59;;;20.89;70.45
9257;BME280;4665;51.368;6.782;2023-06-05T10:24:04;101690.03;;;20.96;69.59
9257;BME280;4665;51.368;6.782;2023-06-05T10:26:48;101683.78;;;21.02;75.63
9257;BME280;4665;51.368;6.782;2023-06-05T10:32:05;101681.81;;;21.25;74.85
9257;BME280;4665;51.368;6.782;2023-06-05T10:37:44;101682.69;;;21.38;70.79
9257;BME280;4665;51.368;6.782;2023-06-05T10:40:15;101684.19;;;21.48;66.52
9257;BME280;4665;51.368;6.782;2023-06-05T10:42:42;101669.75;;;21.34;60.55
9257;BME280;4665;51.368;6.782;2023-06-05T10:45:08;101672.84;;;21.37;63.93
9257;BME280;4665;51.368;6.782;2023-06-05T10:52:47;101678.16;;;21.59;56.20
9257;BME280;4665;51.368;6.782;2023-06-05T10:55:13;101676.31;;;21.66;57.28
9257;BME280;4665;51.368;6.782;2023-06-05T10:58:03;101682.56;;;21.73;59.05
9257;BME280;4665;51.368;6.782;2023-06-05T11:00:30;101675.69;;;21.77;53.51
9257;BME280;4665;51.368;6.782;2023-06-05T11:02:56;101669.84;;;21.74;53.49
9257;BME280;4665;51.368;6.782;2023-06-05T11:05:22;101649.81;;;21.68;53.17
9257;BME280;4665;51.368;6.782;2023-06-05T11:07:47;101670.69;;;21.81;51.67
9257;BME280;4665;51.368;6.782;2023-06-05T11:10:33;101654.41;;;21.81;51.00
9257;BME280;4665;51.368;6.782;2023-06-05T11:12:59;101668.59;;;21.90;51.18
9257;BME280;4665;51.368;6.782;2023-06-05T11:17:52;101665.91;;;22.03;51.96
9257;BME280;4665;51.368;6.782;2023-06-05T11:27:47;101648.56;;;22.37;51.32
9257;BME280;4665;51.368;6.782;2023-06-05T11:30:13;101644.78;;;22.45;49.80
9257;BME280;4665;51.368;6.782;2023-06-05T11:32:39;101638.09;;;22.41;49.50
9257;BME280;4665;51.368;6.782;2023-06-05T11:35:05;101642.50;;;22.42;48.41
9257;BME280;4665;51.368;6.782;2023-06-05T11:37:30;101634.75;;;22.39;47.09
9257;BME280;4665;51.368;6.782;2023-06-05T11:39:58;101651.66;;;22.47;46.03
9257;BME280;4665;51.368;6.782;2023-06-05T11:42:24;101636.00;;;22.50;42.74
9257;BME280;4665;51.368;6.782;2023-06-05T11:44:49;101636.38;;;22.53;44.36
9257;BME280;4665;51.368;6.782;2023-06-05T11:47:28;101634.31;;;22.55;46.49
9257;BME280;4665;51.368;6.782;2023-06-05T11:50:15;101641.97;;;22.72;45.07
9257;BME280;4665;51.368;6.782;2023-06-05T11:52:42;101633.41;;;22.75;45.51
9257;BME280;4665;51.368;6.782;2023-06-05T11:55:16;101637.56;;;22.84;43.45
9257;BME280;4665;51.368;6.782;2023-06-05T11:57:46;101632.94;;;22.84;43.11
9257;BME280;4665;51.368;6.782;2023-06-05T12:00:23;101631.09;;;22.78;43.26
9257;BME280;4665;51.368;6.782;2023-06-05T12:02:48;101624.66;;;22.73;44.82
9257;BME280;4665;51.368;6.782;2023-06-05T12:05:14;101624.56;;;22.86;43.89
9257;BME280;4665;51.368;6.782;2023-06-05T12:07:40;101620.38;;;22.90;43.27
9257;BME280;4665;51.368;6.782;2023-06-05T12:10:07;101619.13;;;22.86;44.49
9257;BME280;4665;51.368;6.782;2023-06-05T12:12:55;101620.00;;;22.86;44.05
9257;BME280;4665;51.368;6.782;2023-06-05T12:15:21;101619.72;;;23.01;43.83
9257;BME280;4665;51.368;6.782;2023-06-05T12:20:16;101613.69;;;22.86;43.53
9257;BME280;4665;51.368;6.782;2023-06-05T12:22:42;101622.06;;;22.91;41.23
9257;BME280;4665;51.368;6.782;2023-06-05T12:27:41;101615.38;;;22.87;43.06
9257;BME280;4665;51.368;6.782;2023-06-05T12:30:07;101598.91;;;22.82;42.92
9257;BME280;4665;51.368;6.782;2023-06-05T12:32:33;101612.00;;;23.05;42.40
9257;BME280;4665;51.368;6.782;2023-06-05T12:34:58;101606.97;;;23.02;42.90
9257;BME280;4665;51.368;6.782;2023-06-05T12:37:29;101607.22;;;23.00;40.20
9257;BME280;4665;51.368;6.782;2023-06-05T12:39:57;101612.38;;;23.08;39.57
9257;BME280;4665;51.368;6.782;2023-06-05T12:42:24;101606.56;;;23.05;39.95
9257;BME280;4665;51.368;6.782;2023-06-05T12:44:49;101593.19;;;23.03;40.10
9257;BME280;4665;51.368;6.782;2023-06-05T12:47:15;101608.63;;;23.09;39.73
9257;BME280;4665;51.368;6.782;2023-06-05T12:49:41;101599.84;;;23.07;39.75
9257;BME280;4665;51.368;6.782;2023-06-05T12:52:06;101601.88;;;23.19;39.64
9257;BME280;4665;51.368;6.782;2023-06-05T12:54:35;101584.72;;;23.18;38.59
9257;BME280;4665;51.368;6.782;2023-06-05T12:57:01;101576.41;;;23.13;38.79
9257;BME280;4665;51.368;6.782;2023-06-05T12:59:26;101586.38;;;23.26;39.88
9257;BME280;4665;51.368;6.782;2023-06-05T13:01:51;101594.69;;;23.31;40.15
9257;BME280;4665;51.368;6.782;2023-06-05T13:04:17;101587.31;;;23.38;40.71
9257;BME280;4665;51.368;6.782;2023-06-05T13:06:42;101590.25;;;23.37;39.43
9257;BME280;4665;51.368;6.782;2023-06-05T13:12:31;101583.88;;;23.18;39.97
9257;BME280;4665;51.368;6.782;2023-06-05T13:14:57;101590.13;;;23.25;42.59
9257;BME280;4665;51.368;6.782;2023-06-05T13:17:22;101585.13;;;23.22;42.14
9257;BME280;4665;51.368;6.782;2023-06-05T13:19:50;101577.41;;;23.19;41.08
9257;BME280;4665;51.368;6.782;2023-06-05T13:22:15;101578.88;;;23.21;41.14
9257;BME280;4665;51.368;6.782;2023-06-05T13:24:41;101579.69;;;23.22;41.30
9257;BME280;4665;51.368;6.782;2023-06-05T13:27:06;101572.13;;;23.30;42.58
9257;BME280;4665;51.368;6.782;2023-06-05T13:29:32;101567.03;;;23.34;41.88
9257;BME280;4665;51.368;6.782;2023-06-05T13:31:57;101566.97;;;23.47;40.17
9257;BME280;4665;51.368;6.782;2023-06-05T13:34:22;101565.47;;;23.51;40.22